Time;durP1;ratioP1;P1;durP2;ratioP2;P2;SDS_P1;SDS_P2;PMS_P1;PMS_P2;Temp;Humidity;BMP_temperature;BMP_pressure;BME280_temperature;BME280_humidity;BME280_pressure;Samples;Min_cycle;Max_cycle;Signal;HPM_P1;HPM_P2
2021/04/27 00:01:18;;;;;;;21.10;13.00;;;;;;;11.08;41.94;100586.81;1787147;80;21608;-79
2021/04/27 00:03:45;;;;;;;23.98;13.85;;;;;;;11.05;42.04;100588.46;1787084;80;21117;-81
2021/04/27 00:06:15;;;;;;;25.85;13.88;;;;;;;11.03;42.11;100583.73;1787064;80;21129;-79
2021/04/27 00:08:43;;;;;;;26.60;15.50;;;;;;;11.00;42.14;100588.60;1786968;80;21091;-79
2021/04/27 00:11:10;;;;;;;22.55;13.98;;;;;;;10.96;42.20;100589.41;1787051;80;21062;-77
2021/04/27 00:13:43;;;;;;;25.82;14.95;;;;;;;10.94;42.23;100596.75;1786815;80;21084;-77
2021/04/27 00:16:10;;;;;;;;;;;;;;;10.91;42.23;100600.59;1789820;80;21481;-78
2021/04/27 00:18:39;;;;;;;22.10;12.78;;;;;;;10.88;42.22;100594.20;1787168;80;23361;-79
2021/04/27 00:21:06;;;;;;;20.72;12.80;;;;;;;10.85;42.22;100595.01;1787025;80;21620;-79
2021/04/27 00:23:33;;;;;;;19.77;12.45;;;;;;;10.82;42.23;100599.36;1787013;80;21593;-77
2021/04/27 00:26:02;;;;;;;21.65;13.15;;;;;;;10.80;42.21;100590.13;1784244;80;21524;-77
2021/04/27 00:28:31;;;;;;;25.27;13.45;;;;;;;10.81;42.22;100588.28;1787049;80;21177;-78
2021/04/27 00:31:03;;;;;;;27.15;12.50;;;;;;;10.79;42.24;100593.80;1787085;80;21153;-80
2021/04/27 00:33:32;;;;;;;25.17;14.25;;;;;;;10.76;42.30;100593.27;1793586;78;21193;-78
2021/04/27 00:36:03;;;;;;;25.35;14.98;;;;;;;10.71;42.32;100592.39;1785927;80;21178;-78
2021/04/27 00:38:32;;;;;;;30.35;16.15;;;;;;;10.69;42.44;100590.89;1786623;80;21213;-77
2021/04/27 00:41:02;;;;;;;29.82;17.52;;;;;;;10.64;42.48;100590.85;1785894;80;21267;-78
2021/04/27 00:43:32;;;;;;;28.02;17.67;;;;;;;10.63;42.49;100591.86;1786654;79;21497;-79
2021/04/27 00:46:00;;;;;;;27.82;17.37;;;;;;;10.61;42.56;100587.13;1781520;80;21086;-76
2021/04/27 00:48:29;;;;;;;29.82;18.62;;;;;;;10.60;42.50;100587.30;1781588;80;21058;-76
2021/04/27 00:50:56;;;;;;;33.75;19.15;;;;;;;10.60;42.48;100586.80;1781223;80;21150;-79
2021/04/27 00:53:24;;;;;;;31.17;18.02;;;;;;;10.59;42.39;100597.17;1780705;80;21185;-76
2021/04/27 00:55:52;;;;;;;28.65;17.77;;;;;;;10.64;42.29;100590.85;1780564;79;21145;-80
2021/04/27 00:58:21;;;;;;;29.60;18.92;;;;;;;10.64;42.33;100585.49;1780178;80;21484;-77
2021/04/27 01:00:49;;;;;;;33.65;20.37;;;;;;;10.59;42.46;100593.66;1780244;80;21054;-79
2021/04/27 01:03:18;;;;;;;33.95;19.48;;;;;;;10.58;42.41;100589.27;1780145;80;21136;-76
2021/04/27 01:05:53;;;;;;;34.83;19.65;;;;;;;10.58;42.47;100591.95;1780540;80;21149;-79
2021/04/27 01:08:24;;;;;;;;;;;;;;;10.56;42.47;100588.60;1783696;79;21480;-76
2021/04/27 01:11:32;;;;;;;36.80;22.52;;;;;;;10.54;42.55;100590.11;1763323;80;20219;-78
2021/04/27 01:14:17;;;;;;;40.83;23.52;;;;;;;10.50;42.57;100583.38;1818732;78;21173;-77
2021/04/27 01:16:53;;;;;;;38.38;22.70;;;;;;;10.48;42.63;100584.01;1818743;78;21646;-79
2021/04/27 01:19:38;;;;;;;37.50;22.93;;;;;;;10.48;42.64;100577.81;1818713;78;21205;-77
2021/04/27 01:22:11;;;;;;;36.95;23.92;;;;;;;10.47;42.64;100585.02;1818755;78;21168;-78
2021/04/27 01:24:52;;;;;;;43.20;24.15;;;;;;;10.43;42.69;100582.30;1818943;78;21153;-77
2021/04/27 01:27:21;;;;;;;41.48;24.95;;;;;;;10.41;42.68;100576.27;1819722;78;21472;-80
2021/04/27 01:29:48;;;;;;;41.23;24.30;;;;;;;10.44;42.63;100580.45;1792775;78;21089;-77
2021/04/27 01:32:17;;;;;;;39.63;24.87;;;;;;;10.49;42.56;100570.12;1820207;78;21157;-77
2021/04/27 01:34:46;;;;;;;42.30;24.55;;;;;;;10.44;42.58;100573.26;1820329;78;21113;-78
2021/04/27 01:37:15;;;;;;;36.98;23.20;;;;;;;10.43;42.61;100574.27;1793360;78;21116;-78
2021/04/27 01:39:43;;;;;;;42.85;23.85;;;;;;;10.41;42.54;100562.37;1820904;78;21477;-76
2021/04/27 01:42:10;;;;;;;41.42;25.27;;;;;;;10.39;42.54;100564.35;1805867;78;21119;-80
2021/04/27 01:44:41;;;;;;;42.58;25.30;;;;;;;10.37;42.57;100558.33;1794329;79;21055;-78
2021/04/27 01:47:11;;;;;;;67.25;26.68;;;;;;;10.36;42.57;100559.33;1794817;79;21076;-76
2021/04/27 01:49:42;;;;;;;41.40;24.80;;;;;;;10.32;42.63;100564.64;1754741;80;21095;-78
2021/04/27 01:52:12;;;;;;;38.83;22.48;;;;;;;10.34;42.60;100561.80;1793209;80;21061;-79
2021/04/27 01:54:41;;;;;;;33.63;20.12;;;;;;;10.31;42.61;100562.09;1779197;80;21063;-77
2021/04/27 01:57:08;;;;;;;37.28;20.30;;;;;;;10.29;42.63;100556.07;1795399;78;21090;-76
2021/04/27 01:59:37;;;;;;;33.90;20.10;;;;;;;10.29;42.74;100561.42;1795357;78;21114;-80
2021/04/27 02:02:06;;;;;;;30.62;19.05;;;;;;;10.18;43.02;100558.46;1779943;80;21550;-78
2021/04/27 02:04:34;;;;;;;34.35;18.42;;;;;;;10.22;42.93;100558.97;1779979;80;21143;-80
2021/04/27 02:07:09;;;;;;;27.82;17.52;;;;;;;10.18;43.03;100556.28;1762897;79;21067;-80
2021/04/27 02:09:38;;;;;;;28.05;16.57;;;;;;;10.15;43.07;100560.94;1755761;81;21149;-81
2021/04/27 02:12:08;;;;;;;29.35;17.07;;;;;;;10.15;43.11;100558.25;1762291;80;21127;-78
2021/04/27 02:14:37;;;;;;;39.38;17.30;;;;;;;10.14;43.10;100559.76;1774648;80;21553;-81
2021/04/27 02:17:19;;;;;;;27.20;14.68;;;;;;;10.14;43.13;100559.25;1792288;80;21103;-80
2021/04/27 02:19:48;;;;;;;25.32;15.28;;;;;;;10.12;43.14;100569.26;1786076;80;21155;-77
2021/04/27 02:22:34;;;;;;;28.87;16.55;;;;;;;10.14;43.04;100569.13;1777615;80;21148;-77
2021/04/27 02:25:05;;;;;;;27.52;15.98;;;;;;;10.19;42.86;100567.33;1790775;79;21488;-78
2021/04/27 02:27:37;;;;;;;33.67;16.05;;;;;;;10.18;42.84;100571.01;1785580;79;21133;-79
2021/04/27 02:30:06;;;;;;;33.75;15.30;;;;;;;10.18;42.83;100572.34;1781637;80;21100;-77
2021/04/27 02:32:36;;;;;;;34.43;15.40;;;;;;;10.08;42.99;100571.92;1782060;79;21132;-79
2021/04/27 02:35:06;;;;;;;32.93;16.07;;;;;;;10.06;43.03;100571.72;1756412;80;21483;-77
2021/04/27 02:37:34;;;;;;;30.75;16.50;;;;;;;10.06;43.06;100574.39;1756265;80;21594;-76
2021/04/27 02:40:05;;;;;;;31.30;14.55;;;;;;;10.04;43.07;100569.20;1781983;79;21595;-76
2021/04/27 02:42:35;;;;;;;31.97;16.50;;;;;;;10.04;43.11;100573.72;1802971;79;21167;-76
2021/04/27 02:45:07;;;;;;;28.75;14.25;;;;;;;10.01;43.17;100574.02;1798674;79;21152;-79
2021/04/27 02:47:36;;;;;;;23.67;12.93;;;;;;;10.01;43.20;100571.33;1798621;79;21128;-80
2021/04/27 02:50:05;;;;;;;21.33;11.93;;;;;;;10.02;43.18;100567.66;1802979;79;21148;-76
2021/04/27 02:52:32;;;;;;;23.85;12.05;;;;;;;10.01;43.25;100568.16;1802870;79;21105;-78
2021/04/27 02:55:02;;;;;;;18.80;10.88;;;;;;;10.00;43.30;100570.50;1803070;79;21085;-76
2021/04/27 02:57:31;;;;;;;17.25;9.83;;;;;;;9.99;43.24;100558.11;1773891;80;21174;-77
2021/04/27 03:00:00;;;;;;;18.07;10.23;;;;;;;10.01;43.30;100566.81;1774794;80;21067;-79
2021/04/27 03:02:27;;;;;;;20.17;10.78;;;;;;;10.02;43.32;100561.80;1792320;80;21573;-79
2021/04/27 03:04:55;;;;;;;15.65;9.15;;;;;;;10.03;43.32;100562.14;1792325;80;21154;-78
2021/04/27 03:07:24;;;;;;;15.93;8.98;;;;;;;10.03;43.29;100554.11;1773569;80;21181;-78
2021/04/27 03:09:51;;;;;;;13.65;8.63;;;;;;;10.03;43.34;100554.11;1792220;79;21047;-80
2021/04/27 03:12:19;;;;;;;16.35;9.03;;;;;;;10.05;43.33;100564.69;1792261;80;21494;-79
2021/04/27 03:14:47;;;;;;;16.95;9.05;;;;;;;10.06;43.35;100567.20;1773552;80;21229;-76
2021/04/27 03:17:16;;;;;;;14.73;8.83;;;;;;;10.08;43.23;100562.55;1790797;79;21187;-78
2021/04/27 03:19:45;;;;;;;13.18;9.20;;;;;;;10.10;43.24;100564.57;1788432;79;21161;-78
2021/04/27 03:22:14;;;;;;;11.40;8.20;;;;;;;10.11;43.22;100568.92;1783694;80;21197;-79
2021/04/27 03:24:41;;;;;;;13.00;8.70;;;;;;;10.13;43.18;100573.64;1811373;78;21178;-79
2021/04/27 03:27:08;;;;;;;;;;;;;;;10.27;42.90;100568.78;1800072;79;21152;-76
2021/04/27 03:29:49;;;;;;;20.65;11.15;;;;;;;10.31;42.80;100576.82;1783495;80;20229;-79
2021/04/27 03:32:16;;;;;;;15.95;11.25;;;;;;;10.32;42.86;100572.67;1793138;80;21108;-78
2021/04/27 03:34:44;;;;;;;16.50;10.98;;;;;;;10.33;42.78;100566.31;1792693;80;21147;-77
2021/04/27 03:37:11;;;;;;;17.25;11.93;;;;;;;10.40;42.78;100565.19;1793182;80;21079;-76
2021/04/27 03:39:39;;;;;;;22.32;12.93;;;;;;;10.44;42.69;100569.24;1792829;80;21084;-78
2021/04/27 03:42:07;;;;;;;24.67;12.80;;;;;;;10.50;42.71;100565.97;1793182;79;21127;-79
2021/04/27 03:44:34;;;;;;;20.70;12.33;;;;;;;10.54;42.67;100570.52;1793000;79;21613;-79
2021/04/27 03:47:04;;;;;;;27.20;13.55;;;;;;;10.59;42.63;100573.57;1792907;80;21543;-80
2021/04/27 03:49:33;;;;;;;31.00;16.35;;;;;;;10.63;42.61;100574.95;1766076;80;21195;-77
2021/04/27 03:52:01;;;;;;;36.88;16.65;;;;;;;10.65;42.58;100584.48;1791614;80;21721;-77
2021/04/27 03:54:29;;;;;;;23.40;13.30;;;;;;;10.72;42.50;100582.05;1791285;80;21408;-78
2021/04/27 03:56:56;;;;;;;22.42;13.62;;;;;;;10.25;43.35;100580.96;1778940;80;21181;-78
2021/04/27 03:59:23;;;;;;;25.72;16.23;;;;;;;10.09;43.81;100590.16;1748928;80;21163;-77
2021/04/27 04:01:52;;;;;;;20.02;12.63;;;;;;;10.06;44.01;100587.77;1788865;80;21170;-77
2021/04/27 04:04:19;;;;;;;19.82;12.13;;;;;;;10.08;44.08;100585.77;1791462;80;21663;-76
2021/04/27 04:07:04;;;;;;;20.85;11.57;;;;;;;10.12;44.14;100581.30;1787494;80;21476;-77
2021/04/27 04:09:50;;;;;;;16.75;10.60;;;;;;;10.16;44.01;100584.02;1789902;80;21196;-77
2021/04/27 04:12:29;;;;;;;21.45;11.83;;;;;;;10.38;43.79;100584.59;1788136;80;21197;-77
2021/04/27 04:14:58;;;;;;;19.12;11.33;;;;;;;10.97;42.66;100580.36;1791164;79;21199;-77
2021/04/27 04:17:35;;;;;;;23.60;13.28;;;;;;;11.05;42.49;100581.76;1791554;80;21221;-77
2021/04/27 04:20:06;;;;;;;20.17;12.35;;;;;;;10.72;43.02;100581.18;1791219;80;21692;-77
2021/04/27 04:22:37;;;;;;;19.62;12.50;;;;;;;11.03;42.57;100590.44;1765073;80;21200;-79
2021/04/27 04:25:10;;;;;;;20.15;12.35;;;;;;;10.82;42.90;100595.34;1776918;78;21774;-77
2021/04/27 04:27:37;;;;;;;20.30;11.78;;;;;;;11.21;42.19;100596.25;1791473;80;21184;-77
2021/04/27 04:30:12;;;;;;;14.50;9.80;;;;;;;11.34;42.04;100592.64;1794660;78;21711;-78
2021/04/27 04:32:43;;;;;;;18.17;10.48;;;;;;;11.41;42.03;100586.98;1780266;78;21625;-78
2021/04/27 04:35:29;;;;;;;17.48;9.20;;;;;;;11.50;42.04;100591.39;1789285;80;21202;-78
2021/04/27 04:38:18;;;;;;;22.93;9.93;;;;;;;11.61;41.81;100591.59;1803257;77;21173;-77
2021/04/27 04:41:06;;;;;;;12.58;8.65;;;;;;;11.65;41.66;100585.73;1784956;80;21181;-77
2021/04/27 04:43:52;;;;;;;13.98;7.87;;;;;;;11.74;41.67;100589.80;1780844;78;21578;-79
2021/04/27 04:46:24;;;;;;;13.58;8.33;;;;;;;11.85;41.51;100585.48;1747168;79;21199;-78
2021/04/27 04:49:07;;;;;;;17.52;8.40;;;;;;;11.95;41.40;100587.55;1833961;77;21209;-78
2021/04/27 04:51:53;;;;;;;15.70;8.33;;;;;;;12.04;41.34;100587.91;1821464;78;21139;-78
2021/04/27 04:54:30;;;;;;;12.85;7.22;;;;;;;12.17;41.07;100595.46;1803191;78;21215;-78
2021/04/27 04:56:59;;;;;;;16.65;8.35;;;;;;;12.27;40.89;100595.34;1818690;78;21180;-78
2021/04/27 04:59:26;;;;;;;12.78;8.53;;;;;;;12.40;40.59;100590.32;1797967;78;21692;-77
2021/04/27 05:01:54;;;;;;;15.55;9.20;;;;;;;12.45;40.59;100585.28;1785361;78;21140;-77
2021/04/27 05:04:35;;;;;;;20.05;9.53;;;;;;;12.52;40.47;100586.27;1733253;80;21447;-80
2021/04/27 05:07:23;;;;;;;21.42;9.43;;;;;;;12.62;40.32;100593.66;1718313;81;21229;-77
2021/04/27 05:10:10;;;;;;;17.77;11.07;;;;;;;12.77;40.11;100591.66;1817850;76;28555;-79
2021/04/27 05:12:40;;;;;;;15.20;8.43;;;;;;;12.86;39.73;100597.36;1819046;77;21085;-78
2021/04/27 05:15:15;;;;;;;16.20;8.10;;;;;;;12.98;39.53;100594.64;1804953;77;21122;-77
2021/04/27 05:17:42;;;;;;;;;;;;;;;13.07;39.35;100602.19;1794207;77;21029;-77
2021/04/27 05:20:09;;;;;;;19.98;8.73;;;;;;;13.12;39.27;100599.31;1796664;76;20247;-76
2021/04/27 05:22:39;;;;;;;19.37;7.42;;;;;;;13.18;39.07;100600.50;1797222;77;21135;-78
2021/04/27 05:25:07;;;;;;;15.60;6.10;;;;;;;13.26;38.89;100601.00;1798418;77;21116;-78
2021/04/27 05:27:36;;;;;;;11.22;6.28;;;;;;;13.34;38.53;100596.44;1799716;77;21104;-76
2021/04/27 05:30:05;;;;;;;9.53;5.17;;;;;;;13.42;38.26;100602.31;1796055;77;21477;-78
2021/04/27 05:32:33;;;;;;;13.45;5.15;;;;;;;13.52;38.26;100606.98;1800709;77;21131;-77
2021/04/27 05:35:00;;;;;;;13.48;5.20;;;;;;;13.60;37.82;100608.81;1796401;77;21120;-79
2021/04/27 05:37:27;;;;;;;7.60;4.72;;;;;;;13.65;37.29;100607.78;1802028;77;21179;-77
2021/04/27 05:39:55;;;;;;;7.70;4.08;;;;;;;13.71;37.02;100605.22;1797782;77;21384;-79
2021/04/27 05:42:22;;;;;;;10.82;5.03;;;;;;;13.81;36.85;100610.41;1794898;77;21132;-78
2021/04/27 05:44:50;;;;;;;12.58;4.45;;;;;;;13.88;36.60;100611.88;1800611;77;21185;-78
2021/04/27 05:47:33;;;;;;;11.40;4.75;;;;;;;14.01;36.58;100608.62;1790087;77;21196;-78
2021/04/27 05:50:22;;;;;;;7.33;4.03;;;;;;;14.12;36.30;100604.17;1786609;77;21204;-79
2021/04/27 05:53:11;;;;;;;7.58;3.80;;;;;;;14.31;35.65;100601.55;1840439;76;22076;-79
2021/04/27 05:55:40;;;;;;;5.62;2.90;;;;;;;14.41;35.21;100608.88;1812164;77;21180;-77
2021/04/27 05:58:13;;;;;;;9.63;3.52;;;;;;;14.54;35.02;100603.76;1820558;77;21182;-78
2021/04/27 06:00:41;;;;;;;9.58;3.45;;;;;;;14.65;34.32;100603.32;1828630;76;21195;-78
2021/04/27 06:03:10;;;;;;;5.10;3.67;;;;;;;14.76;34.19;100596.67;1823790;77;21222;-78
2021/04/27 06:05:39;;;;;;;;;;;;;;;14.90;33.81;100598.56;1826041;76;21176;-79
2021/04/27 06:08:11;;;;;;;5.92;3.70;;;;;;;15.04;33.63;100596.91;1826893;76;20296;-79
2021/04/27 06:11:00;;;;;;;8.20;3.70;;;;;;;15.15;33.37;100596.45;1698011;78;21140;-78
2021/04/27 06:13:38;;;;;;;5.12;3.37;;;;;;;15.34;33.03;100594.22;1800348;78;21132;-77
2021/04/27 06:16:36;;;;;;;8.23;4.12;;;;;;;15.51;33.48;100596.23;1759437;77;21157;-81
2021/04/27 06:19:33;;;;;;;4.25;3.50;;;;;;;15.81;33.77;100599.78;1866655;75;22273;-77
2021/04/27 06:22:04;;;;;;;4.97;3.62;;;;;;;15.97;33.72;100602.25;1830157;76;21144;-78
